sensor_id;sensor_type;location;lat;lon;timestamp;P1;durP1;ratioP1;P2;durP2;ratioP2
53203;SDS011;39086;54.424;18.456;2022-07-26T00:00:09;1.90;;;1.00;;
53203;SDS011;39086;54.424;18.456;2022-07-26T00:01:20;1.30;;;1.07;;
53203;SDS011;39086;54.424;18.456;2022-07-26T00:02:28;0.83;;;0.83;;
53203;SDS011;39086;54.424;18.456;2022-07-26T00:03:30;4.83;;;1.00;;
53203;SDS011;39086;54.424;18.456;2022-07-26T00:04:51;0.97;;;0.97;;
53203;SDS011;39086;54.424;18.456;2022-07-26T00:05:55;0.47;;;0.47;;
53203;SDS011;39086;54.424;18.456;2022-07-26T00:07:04;0.70;;;0.70;;
53203;SDS011;39086;54.424;18.456;2022-07-26T00:08:07;0.67;;;0.67;;
53203;SDS011;39086;54.424;18.456;2022-07-26T00:09:14;0.50;;;0.50;;
53203;SDS011;39086;54.424;18.456;2022-07-26T00:10:18;2.97;;;0.90;;
53203;SDS011;39086;54.424;18.456;2022-07-26T00:11:21;0.93;;;0.93;;
53203;SDS011;39086;54.424;18.456;2022-07-26T00:12:32;0.63;;;0.63;;
53203;SDS011;39086;54.424;18.456;2022-07-26T00:13:41;1.10;;;1.00;;
53203;SDS011;39086;54.424;18.456;2022-07-26T00:14:45;1.00;;;1.00;;
53203;SDS011;39086;54.424;18.456;2022-07-26T00:15:48;0.77;;;0.77;;
53203;SDS011;39086;54.424;18.456;2022-07-26T00:16:58;0.70;;;0.70;;
53203;SDS011;39086;54.424;18.456;2022-07-26T00:18:08;0.80;;;0.80;;
53203;SDS011;39086;54.424;18.456;2022-07-26T00:19:12;0.70;;;0.70;;
53203;SDS011;39086;54.424;18.456;2022-07-26T00:20:16;0.90;;;0.90;;
53203;SDS011;39086;54.424;18.456;2022-07-26T00:21:18;0.60;;;0.60;;
53203;SDS011;39086;54.424;18.456;2022-07-26T00:22:21;0.63;;;0.53;;
53203;SDS011;39086;54.424;18.456;2022-07-26T00:23:43;1.17;;;0.70;;
53203;SDS011;39086;54.424;18.456;2022-07-26T00:24:48;0.67;;;0.63;;
53203;SDS011;39086;54.424;18.456;2022-07-26T00:25:50;0.70;;;0.70;;
53203;SDS011;39086;54.424;18.456;2022-07-26T00:26:54;1.07;;;1.00;;
53203;SDS011;39086;54.424;18.456;2022-07-26T00:27:56;1.37;;;0.80;;
53203;SDS011;39086;54.424;18.456;2022-07-26T00:29:06;0.97;;;0.97;;
53203;SDS011;39086;54.424;18.456;2022-07-26T00:30:15;1.17;;;0.90;;
53203;SDS011;39086;54.424;18.456;2022-07-26T00:31:19;0.80;;;0.80;;
53203;SDS011;39086;54.424;18.456;2022-07-26T00:32:21;0.90;;;0.90;;
53203;SDS011;39086;54.424;18.456;2022-07-26T00:33:24;0.80;;;0.80;;
53203;SDS011;39086;54.424;18.456;2022-07-26T00:34:33;0.43;;;0.43;;
53203;SDS011;39086;54.424;18.456;2022-07-26T00:35:36;0.83;;;0.83;;
53203;SDS011;39086;54.424;18.456;2022-07-26T00:36:39;1.07;;;0.97;;
53203;SDS011;39086;54.424;18.456;2022-07-26T00:37:44;0.90;;;0.90;;
53203;SDS011;39086;54.424;18.456;2022-07-26T00:38:47;1.40;;;1.23;;
53203;SDS011;39086;54.424;18.456;2022-07-26T00:39:58;1.60;;;1.13;;
53203;SDS011;39086;54.424;18.456;2022-07-26T00:41:09;0.77;;;0.77;;
53203;SDS011;39086;54.424;18.456;2022-07-26T00:42:18;0.80;;;0.80;;
53203;SDS011;39086;54.424;18.456;2022-07-26T00:43:21;0.73;;;0.73;;
53203;SDS011;39086;54.424;18.456;2022-07-26T00:44:24;0.93;;;0.93;;
53203;SDS011;39086;54.424;18.456;2022-07-26T00:45:45;0.47;;;0.47;;
53203;SDS011;39086;54.424;18.456;2022-07-26T00:46:50;0.83;;;0.70;;
53203;SDS011;39086;54.424;18.456;2022-07-26T00:47:53;0.70;;;0.70;;
53203;SDS011;39086;54.424;18.456;2022-07-26T00:48:56;1.03;;;1.03;;
53203;SDS011;39086;54.424;18.456;2022-07-26T00:50:07;0.70;;;0.70;;
53203;SDS011;39086;54.424;18.456;2022-07-26T00:51:17;0.70;;;0.70;;
53203;SDS011;39086;54.424;18.456;2022-07-26T00:52:28;1.03;;;1.03;;
53203;SDS011;39086;54.424;18.456;2022-07-26T00:53:31;1.13;;;1.03;;
53203;SDS011;39086;54.424;18.456;2022-07-26T00:54:34;3.07;;;1.33;;
53203;SDS011;39086;54.424;18.456;2022-07-26T00:55:40;1.70;;;0.90;;
53203;SDS011;39086;54.424;18.456;2022-07-26T00:56:42;0.53;;;0.40;;
53203;SDS011;39086;54.424;18.456;2022-07-26T00:57:55;0.90;;;0.90;;
53203;SDS011;39086;54.424;18.456;2022-07-26T00:59:01;8.03;;;1.20;;
53203;SDS011;39086;54.424;18.456;2022-07-26T01:00:04;1.27;;;1.27;;
53203;SDS011;39086;54.424;18.456;2022-07-26T01:01:10;0.93;;;0.93;;
53203;SDS011;39086;54.424;18.456;2022-07-26T01:02:13;0.73;;;0.73;;
53203;SDS011;39086;54.424;18.456;2022-07-26T01:03:23;0.60;;;0.60;;
53203;SDS011;39086;54.424;18.456;2022-07-26T01:04:39;0.83;;;0.83;;
53203;SDS011;39086;54.424;18.456;2022-07-26T01:05:44;0.50;;;0.50;;
53203;SDS011;39086;54.424;18.456;2022-07-26T01:06:47;1.17;;;1.17;;
53203;SDS011;39086;54.424;18.456;2022-07-26T01:07:57;0.57;;;0.57;;
53203;SDS011;39086;54.424;18.456;2022-07-26T01:09:01;0.70;;;0.70;;
53203;SDS011;39086;54.424;18.456;2022-07-26T01:10:10;0.70;;;0.70;;
53203;SDS011;39086;54.424;18.456;2022-07-26T01:11:16;1.07;;;1.07;;
53203;SDS011;39086;54.424;18.456;2022-07-26T01:12:18;1.30;;;1.20;;
53203;SDS011;39086;54.424;18.456;2022-07-26T01:13:22;1.33;;;1.00;;
53203;SDS011;39086;54.424;18.456;2022-07-26T01:14:24;0.97;;;0.97;;
53203;SDS011;39086;54.424;18.456;2022-07-26T01:15:34;0.73;;;0.73;;
53203;SDS011;39086;54.424;18.456;2022-07-26T01:16:37;0.80;;;0.80;;
53203;SDS011;39086;54.424;18.456;2022-07-26T01:17:40;0.63;;;0.63;;
53203;SDS011;39086;54.424;18.456;2022-07-26T01:18:44;0.60;;;0.60;;
53203;SDS011;39086;54.424;18.456;2022-07-26T01:19:46;1.13;;;1.13;;
53203;SDS011;39086;54.424;18.456;2022-07-26T01:20:56;0.70;;;0.70;;
53203;SDS011;39086;54.424;18.456;2022-07-26T01:22:15;0.70;;;0.70;;
53203;SDS011;39086;54.424;18.456;2022-07-26T01:23:19;1.03;;;0.83;;
53203;SDS011;39086;54.424;18.456;2022-07-26T01:24:21;1.23;;;1.23;;
53203;SDS011;39086;54.424;18.456;2022-07-26T01:25:27;1.00;;;1.00;;
53203;SDS011;39086;54.424;18.456;2022-07-26T01:26:44;0.73;;;0.73;;
53203;SDS011;39086;54.424;18.456;2022-07-26T01:27:47;3.47;;;0.97;;
53203;SDS011;39086;54.424;18.456;2022-07-26T01:28:49;0.70;;;0.70;;
53203;SDS011;39086;54.424;18.456;2022-07-26T01:29:53;0.57;;;0.57;;
53203;SDS011;39086;54.424;18.456;2022-07-26T01:30:55;0.70;;;0.70;;
53203;SDS011;39086;54.424;18.456;2022-07-26T01:32:06;0.83;;;0.83;;
53203;SDS011;39086;54.424;18.456;2022-07-26T01:33:09;4.27;;;1.27;;
53203;SDS011;39086;54.424;18.456;2022-07-26T01:34:12;4.60;;;1.30;;
53203;SDS011;39086;54.424;18.456;2022-07-26T01:35:16;1.10;;;1.10;;
53203;SDS011;39086;54.424;18.456;2022-07-26T01:36:29;1.00;;;0.73;;
53203;SDS011;39086;54.424;18.456;2022-07-26T01:37:34;1.10;;;0.93;;
53203;SDS011;39086;54.424;18.456;2022-07-26T01:38:37;0.70;;;0.70;;
53203;SDS011;39086;54.424;18.456;2022-07-26T01:39:46;0.67;;;0.67;;
53203;SDS011;39086;54.424;18.456;2022-07-26T01:41:02;0.90;;;0.53;;
53203;SDS011;39086;54.424;18.456;2022-07-26T01:42:12;0.93;;;0.90;;
53203;SDS011;39086;54.424;18.456;2022-07-26T01:43:15;0.83;;;0.80;;
53203;SDS011;39086;54.424;18.456;2022-07-26T01:44:18;1.60;;;1.03;;
53203;SDS011;39086;54.424;18.456;2022-07-26T01:45:21;1.03;;;0.90;;
53203;SDS011;39086;54.424;18.456;2022-07-26T01:46:24;0.87;;;0.87;;
53203;SDS011;39086;54.424;18.456;2022-07-26T01:47:33;1.00;;;1.00;;
53203;SDS011;39086;54.424;18.456;2022-07-26T01:48:35;0.83;;;0.80;;
53203;SDS011;39086;54.424;18.456;2022-07-26T01:49:39;1.50;;;0.87;;
53203;SDS011;39086;54.424;18.456;2022-07-26T01:50:41;0.77;;;0.77;;
53203;SDS011;39086;54.424;18.456;2022-07-26T01:51:51;0.63;;;0.63;;
53203;SDS011;39086;54.424;18.456;2022-07-26T01:52:55;1.00;;;1.00;;
53203;SDS011;39086;54.424;18.456;2022-07-26T01:53:58;0.60;;;0.60;;
53203;SDS011;39086;54.424;18.456;2022-07-26T01:55:02;0.93;;;0.93;;
53203;SDS011;39086;54.424;18.456;2022-07-26T01:56:05;1.00;;;0.93;;
53203;SDS011;39086;54.424;18.456;2022-07-26T01:57:14;0.73;;;0.73;;
53203;SDS011;39086;54.424;18.456;2022-07-26T01:58:17;0.77;;;0.70;;
53203;SDS011;39086;54.424;18.456;2022-07-26T01:59:20;0.90;;;0.90;;
53203;SDS011;39086;54.424;18.456;2022-07-26T02:00:22;0.80;;;0.80;;
53203;SDS011;39086;54.424;18.456;2022-07-26T02:01:26;1.33;;;1.23;;
53203;SDS011;39086;54.424;18.456;2022-07-26T02:02:40;3.23;;;1.10;;
53203;SDS011;39086;54.424;18.456;2022-07-26T02:03:43;1.50;;;0.93;;
53203;SDS011;39086;54.424;18.456;2022-07-26T02:04:46;0.63;;;0.63;;
53203;SDS011;39086;54.424;18.456;2022-07-26T02:06:02;0.90;;;0.90;;
53203;SDS011;39086;54.424;18.456;2022-07-26T02:07:06;1.13;;;1.03;;
53203;SDS011;39086;54.424;18.456;2022-07-26T02:08:16;0.80;;;0.80;;
53203;SDS011;39086;54.424;18.456;2022-07-26T02:09:22;1.43;;;1.30;;
53203;SDS011;39086;54.424;18.456;2022-07-26T02:10:26;2.10;;;1.00;;
53203;SDS011;39086;54.424;18.456;2022-07-26T02:11:50;1.57;;;1.47;;
53203;SDS011;39086;54.424;18.456;2022-07-26T02:12:53;1.07;;;1.07;;
53203;SDS011;39086;54.424;18.456;2022-07-26T02:14:03;3.50;;;1.00;;
53203;SDS011;39086;54.424;18.456;2022-07-26T02:15:07;2.37;;;1.00;;
53203;SDS011;39086;54.424;18.456;2022-07-26T02:16:12;0.60;;;0.60;;
53203;SDS011;39086;54.424;18.456;2022-07-26T02:17:15;4.60;;;1.37;;
53203;SDS011;39086;54.424;18.456;2022-07-26T02:18:25;15.17;;;0.93;;
53203;SDS011;39086;54.424;18.456;2022-07-26T02:19:35;0.97;;;0.97;;
53203;SDS011;39086;54.424;18.456;2022-07-26T02:20:39;0.70;;;0.70;;
53203;SDS011;39086;54.424;18.456;2022-07-26T02:21:41;0.57;;;0.57;;
53203;SDS011;39086;54.424;18.456;2022-07-26T02:22:44;1.53;;;1.20;;
53203;SDS011;39086;54.424;18.456;2022-07-26T02:23:48;0.90;;;0.90;;
53203;SDS011;39086;54.424;18.456;2022-07-26T02:24:58;3.73;;;1.50;;
53203;SDS011;39086;54.424;18.456;2022-07-26T02:26:07;0.60;;;0.60;;
53203;SDS011;39086;54.424;18.456;2022-07-26T02:27:10;0.30;;;0.30;;
53203;SDS011;39086;54.424;18.456;2022-07-26T02:28:13;3.03;;;0.93;;
53203;SDS011;39086;54.424;18.456;2022-07-26T02:29:23;0.70;;;0.70;;
53203;SDS011;39086;54.424;18.456;2022-07-26T02:30:33;3.97;;;0.90;;
53203;SDS011;39086;54.424;18.456;2022-07-26T02:31:37;5.63;;;0.80;;
53203;SDS011;39086;54.424;18.456;2022-07-26T02:32:39;1.17;;;1.17;;
53203;SDS011;39086;54.424;18.456;2022-07-26T02:33:44;0.70;;;0.70;;
53203;SDS011;39086;54.424;18.456;2022-07-26T02:34:46;0.70;;;0.70;;
53203;SDS011;39086;54.424;18.456;2022-07-26T02:35:56;0.90;;;0.90;;
53203;SDS011;39086;54.424;18.456;2022-07-26T02:36:58;1.03;;;0.80;;
53203;SDS011;39086;54.424;18.456;2022-07-26T02:38:02;2.33;;;0.93;;
53203;SDS011;39086;54.424;18.456;2022-07-26T02:39:08;1.27;;;1.17;;
53203;SDS011;39086;54.424;18.456;2022-07-26T02:40:12;1.13;;;0.90;;
53203;SDS011;39086;54.424;18.456;2022-07-26T02:41:28;0.70;;;0.70;;
53203;SDS011;39086;54.424;18.456;2022-07-26T02:42:37;1.03;;;1.03;;
53203;SDS011;39086;54.424;18.456;2022-07-26T02:43:40;1.07;;;1.07;;
53203;SDS011;39086;54.424;18.456;2022-07-26T02:44:43;2.93;;;1.33;;
53203;SDS011;39086;54.424;18.456;2022-07-26T02:45:45;1.27;;;1.17;;
53203;SDS011;39086;54.424;18.456;2022-07-26T02:47:02;1.63;;;1.53;;
53203;SDS011;39086;54.424;18.456;2022-07-26T02:48:04;0.97;;;0.97;;
53203;SDS011;39086;54.424;18.456;2022-07-26T02:49:08;0.70;;;0.70;;
53203;SDS011;39086;54.424;18.456;2022-07-26T02:50:10;1.40;;;1.30;;
53203;SDS011;39086;54.424;18.456;2022-07-26T02:51:20;1.00;;;1.00;;
53203;SDS011;39086;54.424;18.456;2022-07-26T02:52:23;2.20;;;0.93;;
53203;SDS011;39086;54.424;18.456;2022-07-26T02:53:26;1.77;;;1.43;;
53203;SDS011;39086;54.424;18.456;2022-07-26T02:54:30;0.63;;;0.63;;
53203;SDS011;39086;54.424;18.456;2022-07-26T02:55:33;0.70;;;0.70;;
53203;SDS011;39086;54.424;18.456;2022-07-26T02:56:43;1.43;;;1.33;;
53203;SDS011;39086;54.424;18.456;2022-07-26T02:57:46;1.07;;;1.07;;
53203;SDS011;39086;54.424;18.456;2022-07-26T02:58:50;1.43;;;1.33;;
53203;SDS011;39086;54.424;18.456;2022-07-26T02:59:52;0.80;;;0.80;;
53203;SDS011;39086;54.424;18.456;2022-07-26T03:00:55;1.50;;;1.40;;
53203;SDS011;39086;54.424;18.456;2022-07-26T03:02:05;1.27;;;1.17;;
53203;SDS011;39086;54.424;18.456;2022-07-26T03:03:08;1.27;;;1.17;;
53203;SDS011;39086;54.424;18.456;2022-07-26T03:04:14;1.23;;;1.13;;
53203;SDS011;39086;54.424;18.456;2022-07-26T03:05:18;0.77;;;0.77;;
53203;SDS011;39086;54.424;18.456;2022-07-26T03:06:21;1.00;;;1.00;;
53203;SDS011;39086;54.424;18.456;2022-07-26T03:07:30;10.33;;;1.17;;
53203;SDS011;39086;54.424;18.456;2022-07-26T03:08:33;0.90;;;0.73;;
53203;SDS011;39086;54.424;18.456;2022-07-26T03:09:38;0.87;;;0.87;;
53203;SDS011;39086;54.424;18.456;2022-07-26T03:10:40;0.77;;;0.77;;
53203;SDS011;39086;54.424;18.456;2022-07-26T03:11:44;1.07;;;1.03;;
53203;SDS011;39086;54.424;18.456;2022-07-26T03:12:52;1.00;;;1.00;;
53203;SDS011;39086;54.424;18.456;2022-07-26T03:13:55;1.00;;;0.93;;
53203;SDS011;39086;54.424;18.456;2022-07-26T03:14:58;1.50;;;1.40;;
53203;SDS011;39086;54.424;18.456;2022-07-26T03:16:01;1.07;;;0.93;;
53203;SDS011;39086;54.424;18.456;2022-07-26T03:17:04;2.20;;;2.00;;
53203;SDS011;39086;54.424;18.456;2022-07-26T03:18:13;1.10;;;1.10;;
53203;SDS011;39086;54.424;18.456;2022-07-26T03:19:15;2.10;;;1.23;;
53203;SDS011;39086;54.424;18.456;2022-07-26T03:20:19;0.63;;;0.63;;
53203;SDS011;39086;54.424;18.456;2022-07-26T03:21:21;1.70;;;1.23;;
53203;SDS011;39086;54.424;18.456;2022-07-26T03:22:24;1.03;;;1.03;;
53203;SDS011;39086;54.424;18.456;2022-07-26T03:23:33;1.63;;;1.53;;
53203;SDS011;39086;54.424;18.456;2022-07-26T03:24:44;1.10;;;1.10;;
53203;SDS011;39086;54.424;18.456;2022-07-26T03:25:47;2.10;;;1.37;;
53203;SDS011;39086;54.424;18.456;2022-07-26T03:26:50;1.30;;;1.20;;
53203;SDS011;39086;54.424;18.456;2022-07-26T03:27:53;1.53;;;1.43;;
53203;SDS011;39086;54.424;18.456;2022-07-26T03:29:06;1.60;;;1.30;;
53203;SDS011;39086;54.424;18.456;2022-07-26T03:30:09;1.40;;;1.30;;
53203;SDS011;39086;54.424;18.456;2022-07-26T03:31:13;0.83;;;0.83;;
53203;SDS011;39086;54.424;18.456;2022-07-26T03:32:16;1.27;;;1.27;;
53203;SDS011;39086;54.424;18.456;2022-07-26T03:33:25;1.13;;;1.10;;
53203;SDS011;39086;54.424;18.456;2022-07-26T03:34:28;1.80;;;1.70;;
53203;SDS011;39086;54.424;18.456;2022-07-26T03:35:37;8.03;;;1.33;;
53203;SDS011;39086;54.424;18.456;2022-07-26T03:36:41;2.33;;;1.53;;
53203;SDS011;39086;54.424;18.456;2022-07-26T03:37:44;0.60;;;0.60;;
53203;SDS011;39086;54.424;18.456;2022-07-26T03:38:47;1.30;;;1.20;;
53203;SDS011;39086;54.424;18.456;2022-07-26T03:39:52;1.53;;;1.43;;
53203;SDS011;39086;54.424;18.456;2022-07-26T03:41:09;1.40;;;1.40;;
53203;SDS011;39086;54.424;18.456;2022-07-26T03:42:14;1.63;;;1.53;;
53203;SDS011;39086;54.424;18.456;2022-07-26T03:43:16;2.27;;;2.17;;
53203;SDS011;39086;54.424;18.456;2022-07-26T03:44:23;1.10;;;1.10;;
53203;SDS011;39086;54.424;18.456;2022-07-26T03:45:32;2.63;;;1.93;;
53203;SDS011;39086;54.424;18.456;2022-07-26T03:46:36;15.50;;;1.50;;
53203;SDS011;39086;54.424;18.456;2022-07-26T03:47:38;2.10;;;1.90;;
53203;SDS011;39086;54.424;18.456;2022-07-26T03:48:42;1.77;;;1.67;;
53203;SDS011;39086;54.424;18.456;2022-07-26T03:49:44;1.00;;;1.00;;
53203;SDS011;39086;54.424;18.456;2022-07-26T03:50:54;1.10;;;1.10;;
53203;SDS011;39086;54.424;18.456;2022-07-26T03:51:57;1.47;;;1.17;;
53203;SDS011;39086;54.424;18.456;2022-07-26T03:53:00;1.17;;;1.17;;
53203;SDS011;39086;54.424;18.456;2022-07-26T03:54:03;1.37;;;1.27;;
53203;SDS011;39086;54.424;18.456;2022-07-26T03:55:08;1.30;;;1.30;;
53203;SDS011;39086;54.424;18.456;2022-07-26T03:56:36;0.90;;;0.90;;
53203;SDS011;39086;54.424;18.456;2022-07-26T03:57:46;2.20;;;2.10;;
53203;SDS011;39086;54.424;18.456;2022-07-26T03:58:49;1.57;;;1.47;;
53203;SDS011;39086;54.424;18.456;2022-07-26T03:59:51;2.47;;;2.27;;
53203;SDS011;39086;54.424;18.456;2022-07-26T04:00:55;2.00;;;1.90;;
53203;SDS011;39086;54.424;18.456;2022-07-26T04:02:03;2.00;;;1.80;;
53203;SDS011;39086;54.424;18.456;2022-07-26T04:03:07;3.90;;;1.60;;
53203;SDS011;39086;54.424;18.456;2022-07-26T04:04:10;1.03;;;1.03;;
53203;SDS011;39086;54.424;18.456;2022-07-26T04:05:15;2.30;;;2.10;;
53203;SDS011;39086;54.424;18.456;2022-07-26T04:06:23;1.30;;;0.97;;
53203;SDS011;39086;54.424;18.456;2022-07-26T04:07:39;1.87;;;1.77;;
53203;SDS011;39086;54.424;18.456;2022-07-26T04:08:53;1.87;;;1.77;;
53203;SDS011;39086;54.424;18.456;2022-07-26T04:09:56;2.00;;;1.87;;
53203;SDS011;39086;54.424;18.456;2022-07-26T04:11:00;1.40;;;1.40;;
53203;SDS011;39086;54.424;18.456;2022-07-26T04:12:03;3.53;;;1.87;;
53203;SDS011;39086;54.424;18.456;2022-07-26T04:13:12;1.70;;;1.23;;
53203;SDS011;39086;54.424;18.456;2022-07-26T04:14:15;2.80;;;2.20;;
53203;SDS011;39086;54.424;18.456;2022-07-26T04:15:18;2.33;;;2.23;;
53203;SDS011;39086;54.424;18.456;2022-07-26T04:16:28;1.83;;;1.73;;
53203;SDS011;39086;54.424;18.456;2022-07-26T04:17:34;1.23;;;1.23;;
53203;SDS011;39086;54.424;18.456;2022-07-26T04:18:39;1.97;;;1.87;;
53203;SDS011;39086;54.424;18.456;2022-07-26T04:19:42;1.33;;;1.33;;
53203;SDS011;39086;54.424;18.456;2022-07-26T04:20:46;1.63;;;1.53;;
53203;SDS011;39086;54.424;18.456;2022-07-26T04:21:54;1.90;;;1.80;;
53203;SDS011;39086;54.424;18.456;2022-07-26T04:22:58;2.00;;;1.90;;
53203;SDS011;39086;54.424;18.456;2022-07-26T04:24:00;2.43;;;2.10;;
53203;SDS011;39086;54.424;18.456;2022-07-26T04:25:04;2.40;;;2.27;;
53203;SDS011;39086;54.424;18.456;2022-07-26T04:26:08;2.63;;;1.80;;
53203;SDS011;39086;54.424;18.456;2022-07-26T04:27:19;2.07;;;1.93;;
53203;SDS011;39086;54.424;18.456;2022-07-26T04:28:21;5.90;;;2.00;;
53203;SDS011;39086;54.424;18.456;2022-07-26T04:29:34;1.47;;;1.47;;
53203;SDS011;39086;54.424;18.456;2022-07-26T04:30:37;2.77;;;2.57;;
53203;SDS011;39086;54.424;18.456;2022-07-26T04:31:41;2.63;;;1.77;;
53203;SDS011;39086;54.424;18.456;2022-07-26T04:32:44;3.70;;;1.93;;
53203;SDS011;39086;54.424;18.456;2022-07-26T04:33:53;1.27;;;1.27;;
53203;SDS011;39086;54.424;18.456;2022-07-26T04:34:57;2.10;;;2.00;;
53203;SDS011;39086;54.424;18.456;2022-07-26T04:35:59;1.30;;;1.20;;
53203;SDS011;39086;54.424;18.456;2022-07-26T04:37:10;1.70;;;1.60;;
53203;SDS011;39086;54.424;18.456;2022-07-26T04:38:14;1.83;;;1.73;;
53203;SDS011;39086;54.424;18.456;2022-07-26T04:39:23;1.97;;;1.87;;
53203;SDS011;39086;54.424;18.456;2022-07-26T04:40:26;2.17;;;2.07;;
53203;SDS011;39086;54.424;18.456;2022-07-26T04:41:51;1.97;;;1.80;;
53203;SDS011;39086;54.424;18.456;2022-07-26T04:42:54;2.13;;;2.03;;
53203;SDS011;39086;54.424;18.456;2022-07-26T04:43:57;1.93;;;1.83;;
53203;SDS011;39086;54.424;18.456;2022-07-26T04:45:07;1.87;;;1.83;;
53203;SDS011;39086;54.424;18.456;2022-07-26T04:46:11;2.43;;;2.30;;
53203;SDS011;39086;54.424;18.456;2022-07-26T04:47:14;1.93;;;1.80;;
53203;SDS011;39086;54.424;18.456;2022-07-26T04:48:23;2.57;;;2.37;;
53203;SDS011;39086;54.424;18.456;2022-07-26T04:49:33;4.70;;;3.73;;
53203;SDS011;39086;54.424;18.456;2022-07-26T04:50:42;2.23;;;2.13;;
53203;SDS011;39086;54.424;18.456;2022-07-26T04:51:46;2.50;;;2.30;;
53203;SDS011;39086;54.424;18.456;2022-07-26T04:52:48;1.80;;;1.70;;
53203;SDS011;39086;54.424;18.456;2022-07-26T04:53:52;2.53;;;2.43;;
53203;SDS011;39086;54.424;18.456;2022-07-26T04:55:08;4.90;;;3.30;;
53203;SDS011;39086;54.424;18.456;2022-07-26T04:56:12;2.63;;;2.53;;
53203;SDS011;39086;54.424;18.456;2022-07-26T04:57:22;2.93;;;2.73;;
53203;SDS011;39086;54.424;18.456;2022-07-26T04:58:26;1.47;;;1.37;;
53203;SDS011;39086;54.424;18.456;2022-07-26T04:59:29;2.70;;;2.50;;
53203;SDS011;39086;54.424;18.456;2022-07-26T05:00:33;7.63;;;1.93;;
53203;SDS011;39086;54.424;18.456;2022-07-26T05:02:03;1.40;;;1.30;;
53203;SDS011;39086;54.424;18.456;2022-07-26T05:03:07;3.20;;;2.00;;
53203;SDS011;39086;54.424;18.456;2022-07-26T05:04:09;1.63;;;1.53;;
53203;SDS011;39086;54.424;18.456;2022-07-26T05:05:12;2.33;;;2.13;;
53203;SDS011;39086;54.424;18.456;2022-07-26T05:06:21;1.87;;;1.77;;
53203;SDS011;39086;54.424;18.456;2022-07-26T05:07:38;2.87;;;2.67;;
53203;SDS011;39086;54.424;18.456;2022-07-26T05:08:41;1.80;;;1.70;;
53203;SDS011;39086;54.424;18.456;2022-07-26T05:09:44;2.10;;;2.00;;
53203;SDS011;39086;54.424;18.456;2022-07-26T05:10:53;3.40;;;2.07;;
53203;SDS011;39086;54.424;18.456;2022-07-26T05:11:58;1.97;;;1.93;;
53203;SDS011;39086;54.424;18.456;2022-07-26T05:13:09;2.33;;;2.20;;
53203;SDS011;39086;54.424;18.456;2022-07-26T05:14:12;1.23;;;1.20;;
53203;SDS011;39086;54.424;18.456;2022-07-26T05:15:14;4.23;;;2.03;;
53203;SDS011;39086;54.424;18.456;2022-07-26T05:16:18;1.87;;;1.80;;
53203;SDS011;39086;54.424;18.456;2022-07-26T05:17:28;2.63;;;2.53;;
53203;SDS011;39086;54.424;18.456;2022-07-26T05:18:35;3.80;;;3.60;;
53203;SDS011;39086;54.424;18.456;2022-07-26T05:19:49;3.27;;;3.07;;
53203;SDS011;39086;54.424;18.456;2022-07-26T05:20:54;2.10;;;2.00;;
53203;SDS011;39086;54.424;18.456;2022-07-26T05:21:58;1.80;;;1.70;;
53203;SDS011;39086;54.424;18.456;2022-07-26T05:23:00;2.03;;;1.83;;
53203;SDS011;39086;54.424;18.456;2022-07-26T05:24:10;1.43;;;1.43;;
53203;SDS011;39086;54.424;18.456;2022-07-26T05:25:13;2.23;;;1.93;;
53203;SDS011;39086;54.424;18.456;2022-07-26T05:26:22;1.60;;;1.60;;
53203;SDS011;39086;54.424;18.456;2022-07-26T05:27:25;1.20;;;1.20;;
53203;SDS011;39086;54.424;18.456;2022-07-26T05:28:29;6.37;;;2.30;;
53203;SDS011;39086;54.424;18.456;2022-07-26T05:29:38;1.93;;;1.87;;
53203;SDS011;39086;54.424;18.456;2022-07-26T05:30:48;2.53;;;1.73;;
53203;SDS011;39086;54.424;18.456;2022-07-26T05:31:51;2.00;;;1.83;;
53203;SDS011;39086;54.424;18.456;2022-07-26T05:32:54;1.77;;;1.77;;
53203;SDS011;39086;54.424;18.456;2022-07-26T05:33:57;3.67;;;2.07;;
53203;SDS011;39086;54.424;18.456;2022-07-26T05:35:07;1.87;;;1.77;;
53203;SDS011;39086;54.424;18.456;2022-07-26T05:36:10;2.10;;;2.00;;
53203;SDS011;39086;54.424;18.456;2022-07-26T05:37:13;4.43;;;1.87;;
53203;SDS011;39086;54.424;18.456;2022-07-26T05:38:16;3.17;;;2.43;;
53203;SDS011;39086;54.424;18.456;2022-07-26T05:39:18;1.90;;;1.87;;
53203;SDS011;39086;54.424;18.456;2022-07-26T05:40:28;3.00;;;2.67;;
53203;SDS011;39086;54.424;18.456;2022-07-26T05:41:45;8.33;;;1.87;;
53203;SDS011;39086;54.424;18.456;2022-07-26T05:42:47;1.90;;;1.80;;
53203;SDS011;39086;54.424;18.456;2022-07-26T05:43:52;1.47;;;1.47;;
53203;SDS011;39086;54.424;18.456;2022-07-26T05:45:00;1.10;;;1.10;;
53203;SDS011;39086;54.424;18.456;2022-07-26T05:46:04;1.67;;;1.67;;
53203;SDS011;39086;54.424;18.456;2022-07-26T05:47:10;1.60;;;1.50;;
53203;SDS011;39086;54.424;18.456;2022-07-26T05:48:19;1.43;;;1.43;;
53203;SDS011;39086;54.424;18.456;2022-07-26T05:49:21;1.70;;;1.60;;
53203;SDS011;39086;54.424;18.456;2022-07-26T05:50:26;1.13;;;1.13;;
53203;SDS011;39086;54.424;18.456;2022-07-26T05:51:28;1.97;;;1.73;;
53203;SDS011;39086;54.424;18.456;2022-07-26T05:52:38;1.27;;;1.23;;
53203;SDS011;39086;54.424;18.456;2022-07-26T05:53:48;1.57;;;1.50;;
53203;SDS011;39086;54.424;18.456;2022-07-26T05:54:51;1.73;;;1.63;;
53203;SDS011;39086;54.424;18.456;2022-07-26T05:55:54;1.50;;;1.50;;
53203;SDS011;39086;54.424;18.456;2022-07-26T05:56:57;1.27;;;1.27;;
53203;SDS011;39086;54.424;18.456;2022-07-26T05:57:59;1.33;;;1.33;;
53203;SDS011;39086;54.424;18.456;2022-07-26T05:59:11;6.07;;;1.57;;
53203;SDS011;39086;54.424;18.456;2022-07-26T06:00:14;1.87;;;1.77;;
53203;SDS011;39086;54.424;18.456;2022-07-26T06:01:18;1.70;;;1.60;;
53203;SDS011;39086;54.424;18.456;2022-07-26T06:02:21;1.23;;;1.23;;
53203;SDS011;39086;54.424;18.456;2022-07-26T06:03:25;1.37;;;1.37;;
53203;SDS011;39086;54.424;18.456;2022-07-26T06:04:34;1.73;;;1.63;;
53203;SDS011;39086;54.424;18.456;2022-07-26T06:05:38;1.40;;;1.40;;
53203;SDS011;39086;54.424;18.456;2022-07-26T06:06:40;1.57;;;1.47;;
53203;SDS011;39086;54.424;18.456;2022-07-26T06:07:43;1.00;;;1.00;;
53203;SDS011;39086;54.424;18.456;2022-07-26T06:08:52;1.30;;;1.30;;
53203;SDS011;39086;54.424;18.456;2022-07-26T06:09:56;6.67;;;1.90;;
53203;SDS011;39086;54.424;18.456;2022-07-26T06:10:58;0.80;;;0.80;;
53203;SDS011;39086;54.424;18.456;2022-07-26T06:12:02;1.50;;;1.40;;
53203;SDS011;39086;54.424;18.456;2022-07-26T06:13:05;2.07;;;1.97;;
53203;SDS011;39086;54.424;18.456;2022-07-26T06:14:24;0.87;;;0.87;;
53203;SDS011;39086;54.424;18.456;2022-07-26T06:15:34;1.07;;;1.07;;
53203;SDS011;39086;54.424;18.456;2022-07-26T06:16:39;3.50;;;1.80;;
53203;SDS011;39086;54.424;18.456;2022-07-26T06:17:41;1.20;;;1.20;;
53203;SDS011;39086;54.424;18.456;2022-07-26T06:18:44;1.03;;;1.03;;
53203;SDS011;39086;54.424;18.456;2022-07-26T06:19:54;1.67;;;1.57;;
53203;SDS011;39086;54.424;18.456;2022-07-26T06:20:57;0.90;;;0.90;;
53203;SDS011;39086;54.424;18.456;2022-07-26T06:22:03;0.93;;;0.93;;
53203;SDS011;39086;54.424;18.456;2022-07-26T06:23:06;0.70;;;0.70;;
53203;SDS011;39086;54.424;18.456;2022-07-26T06:24:08;1.10;;;1.10;;
53203;SDS011;39086;54.424;18.456;2022-07-26T06:25:18;1.60;;;1.23;;
53203;SDS011;39086;54.424;18.456;2022-07-26T06:26:20;1.10;;;1.10;;
53203;SDS011;39086;54.424;18.456;2022-07-26T06:27:25;0.93;;;0.93;;
53203;SDS011;39086;54.424;18.456;2022-07-26T06:28:27;1.77;;;1.67;;
53203;SDS011;39086;54.424;18.456;2022-07-26T06:29:31;1.40;;;1.40;;
53203;SDS011;39086;54.424;18.456;2022-07-26T06:30:42;0.90;;;0.90;;